Time;durP1;ratioP1;P1;durP2;ratioP2;P2;SDS_P1;SDS_P2;PMS_P1;PMS_P2;Temp;Humidity;BMP_temperature;BMP_pressure;BME280_temperature;BME280_humidity;BME280_pressure;Samples;Min_cycle;Max_cycle;Signal;HPM_P1;HPM_P2
2022/01/03 00:00:16;;;;;;;1.27;0.30;;;;;;;9.78;100.00;99777.88;5278376;28;20027;-77
2022/01/03 00:02:47;;;;;;;0.25;0.10;;;;;;;9.72;100.00;99778.16;5282604;28;20424;-77
2022/01/03 00:05:18;;;;;;;3.47;0.63;;;;;;;9.75;100.00;99770.19;5259740;28;20037;-77
2022/01/03 00:07:48;;;;;;;0.85;0.35;;;;;;;9.73;100.00;99762.44;5277065;28;20020;-77
2022/01/03 00:10:19;;;;;;;0.52;0.30;;;;;;;9.60;100.00;99766.50;5275913;28;20028;-77
2022/01/03 00:12:49;;;;;;;0.45;0.30;;;;;;;9.61;100.00;99764.72;5265076;28;20519;-77
2022/01/03 00:15:21;;;;;;;2.10;0.20;;;;;;;9.55;100.00;99754.56;5282540;28;20016;-77
2022/01/03 00:17:53;;;;;;;0.20;0.10;;;;;;;9.47;100.00;99762.75;5261237;28;20024;-77
2022/01/03 00:20:25;;;;;;;1.48;0.20;;;;;;;9.61;100.00;99759.50;5279035;28;20043;-77
2022/01/03 00:23:01;;;;;;;0.40;0.20;;;;;;;9.60;100.00;99753.47;5260944;28;20039;-77
2022/01/03 00:25:36;;;;;;;0.90;0.30;;;;;;;9.64;100.00;99754.19;5259010;28;20025;-77
2022/01/03 00:28:22;;;;;;;0.32;0.20;;;;;;;9.69;100.00;99744.38;5278403;28;20111;-77
2022/01/03 00:30:55;;;;;;;1.13;0.20;;;;;;;9.71;100.00;99746.00;5278710;28;20032;-77
2022/01/03 00:33:26;;;;;;;0.82;0.30;;;;;;;9.72;100.00;99736.41;5261663;28;20392;-77
2022/01/03 00:36:00;;;;;;;0.65;0.30;;;;;;;9.77;100.00;99730.06;5277126;28;20024;-77
2022/01/03 00:38:33;;;;;;;1.05;0.38;;;;;;;9.71;100.00;99729.50;5274928;28;20122;-77
2022/01/03 00:41:04;;;;;;;0.85;0.40;;;;;;;9.80;100.00;99734.31;5262277;28;20115;-77
2022/01/03 00:43:34;;;;;;;1.27;0.45;;;;;;;9.74;100.00;99731.97;5283025;28;20054;-78
2022/01/03 00:46:04;;;;;;;1.80;0.57;;;;;;;9.81;100.00;99730.78;5283284;28;20501;-77
2022/01/03 00:48:35;;;;;;;2.85;0.65;;;;;;;9.89;100.00;99728.66;5284248;28;20053;-77
2022/01/03 00:51:05;;;;;;;2.58;0.93;;;;;;;9.88;100.00;99740.00;5251871;28;20054;-77
2022/01/03 00:53:36;;;;;;;3.60;0.90;;;;;;;9.93;100.00;99745.84;5262599;28;20114;-77
2022/01/03 00:56:13;;;;;;;5.57;1.30;;;;;;;9.97;100.00;99739.59;5284770;28;20023;-77
2022/01/03 00:58:57;;;;;;;4.35;1.25;;;;;;;10.04;100.00;99733.19;5279750;28;20470;-77
2022/01/03 01:01:30;;;;;;;3.15;1.00;;;;;;;10.09;100.00;99737.28;5280506;28;20183;-78
2022/01/03 01:04:02;;;;;;;2.40;0.80;;;;;;;10.10;100.00;99728.53;5252100;28;20024;-77
2022/01/03 01:06:34;;;;;;;2.65;0.80;;;;;;;10.14;100.00;99729.25;5257422;28;20020;-77
2022/01/03 01:09:07;;;;;;;4.05;0.90;;;;;;;10.18;100.00;99722.97;5264966;28;20432;-77
2022/01/03 01:11:41;;;;;;;4.20;0.70;;;;;;;10.33;100.00;99732.69;5257307;28;20031;-78
2022/01/03 01:14:13;;;;;;;3.80;1.15;;;;;;;10.35;100.00;99717.78;5267301;28;20392;-78
2022/01/03 01:16:43;;;;;;;4.20;0.90;;;;;;;10.40;100.00;99713.16;5282409;28;20092;-77
2022/01/03 01:19:14;;;;;;;4.05;1.02;;;;;;;10.45;100.00;99725.09;5254967;28;20130;-77
2022/01/03 01:21:48;;;;;;;3.38;1.00;;;;;;;10.51;100.00;99724.78;5260060;28;20039;-78
2022/01/03 01:24:21;;;;;;;5.38;1.08;;;;;;;10.45;100.00;99722.47;5277294;28;20050;-78
2022/01/03 01:29:40;;;;;;;3.13;0.90;;;;;;;10.63;100.00;99712.88;5282017;28;20038;-78
2022/01/03 01:32:14;;;;;;;5.00;0.90;;;;;;;10.58;100.00;99712.25;5263837;28;20016;-78
2022/01/03 01:34:48;;;;;;;2.90;0.82;;;;;;;10.63;100.00;99698.06;5282644;28;20049;-78
2022/01/03 01:37:20;;;;;;;4.80;0.90;;;;;;;10.65;100.00;99706.66;5258626;28;20019;-78
2022/01/03 01:39:51;;;;;;;4.05;0.90;;;;;;;10.70;100.00;99714.28;5283555;28;20023;-78
2022/01/03 01:42:23;;;;;;;5.68;1.10;;;;;;;10.70;100.00;99719.50;5276317;28;20077;-78
2022/01/03 01:44:55;;;;;;;3.83;1.00;;;;;;;10.73;100.00;99730.66;5256999;28;20032;-78
2022/01/03 01:47:26;;;;;;;3.08;0.90;;;;;;;10.75;100.00;99731.44;5286917;28;20169;-78
2022/01/03 01:50:01;;;;;;;4.93;0.98;;;;;;;10.76;100.00;99735.72;5259391;28;20031;-78
2022/01/03 01:52:35;;;;;;;2.72;1.00;;;;;;;10.79;100.00;99745.16;5259098;28;20063;-78
2022/01/03 01:55:11;;;;;;;4.85;0.90;;;;;;;10.76;100.00;99753.16;5281892;28;20355;-78
2022/01/03 01:57:57;;;;;;;4.30;1.13;;;;;;;10.77;100.00;99754.84;5284079;28;20081;-78
2022/01/03 02:00:28;;;;;;;5.18;1.00;;;;;;;10.79;100.00;99745.16;5263877;28;20028;-78
2022/01/03 02:03:10;;;;;;;7.90;1.08;;;;;;;10.76;100.00;99761.00;5263277;28;20035;-78
2022/01/03 02:05:43;;;;;;;5.53;1.00;;;;;;;10.77;100.00;99763.56;5258608;28;20081;-77
2022/01/03 02:08:26;;;;;;;5.20;0.93;;;;;;;10.73;99.49;99755.94;5283482;28;20101;-78
2022/01/03 02:11:07;;;;;;;6.65;1.08;;;;;;;10.75;99.01;99757.56;5283635;28;20027;-78
2022/01/03 02:13:39;;;;;;;4.10;0.80;;;;;;;10.72;97.78;99747.22;5259383;28;20504;-78
2022/01/03 02:16:11;;;;;;;5.95;1.00;;;;;;;10.76;99.24;99754.03;5267348;28;20054;-77
2022/01/03 02:18:43;;;;;;;4.55;0.90;;;;;;;10.68;99.28;99758.75;5283261;28;20507;-78
2022/01/03 02:21:14;;;;;;;6.63;0.90;;;;;;;10.67;98.92;99766.69;5265619;28;20050;-78
2022/01/03 02:23:45;;;;;;;7.35;1.00;;;;;;;10.69;97.97;99798.81;5279383;28;20509;-78
2022/01/03 02:26:15;;;;;;;4.13;0.73;;;;;;;10.63;96.75;99780.81;5260698;28;20035;-78
2022/01/03 02:28:45;;;;;;;5.28;0.75;;;;;;;10.62;98.50;99800.00;5281208;28;20106;-77
2022/01/03 02:31:17;;;;;;;2.70;0.93;;;;;;;10.40;100.00;99831.56;5279921;28;20044;-78
2022/01/03 02:33:48;;;;;;;5.05;0.90;;;;;;;10.30;100.00;99832.03;5278334;28;20020;-78
2022/01/03 02:36:20;;;;;;;2.83;0.75;;;;;;;10.06;100.00;99847.09;5276893;28;20056;-78
2022/01/03 02:38:50;;;;;;;5.57;0.80;;;;;;;9.98;100.00;99835.25;5271222;28;20420;-77
2022/01/03 02:41:20;;;;;;;6.85;0.80;;;;;;;9.78;100.00;99830.03;5270925;28;20043;-78
2022/01/03 02:43:52;;;;;;;5.32;0.73;;;;;;;9.70;100.00;99845.22;5269663;28;20024;-78
2022/01/03 02:46:22;;;;;;;6.82;0.80;;;;;;;9.58;100.00;99848.34;5263285;28;20027;-78
2022/01/03 02:48:52;;;;;;;2.70;0.95;;;;;;;9.55;100.00;99843.25;5261987;28;20042;-78
2022/01/03 02:51:23;;;;;;;4.97;0.93;;;;;;;9.54;100.00;99855.47;5281418;28;20027;-78
2022/01/03 02:53:53;;;;;;;8.52;1.00;;;;;;;9.55;100.00;99848.47;5275989;28;20665;-78
2022/01/03 02:56:23;;;;;;;3.78;0.82;;;;;;;9.54;100.00;99863.28;5277187;28;20020;-79
2022/01/03 02:58:54;;;;;;;5.47;1.00;;;;;;;9.60;100.00;99869.97;5277275;28;20072;-78
2022/01/03 03:01:24;;;;;;;2.85;0.75;;;;;;;9.56;100.00;99860.59;5274959;28;20489;-78
2022/01/03 03:03:55;;;;;;;5.32;0.93;;;;;;;9.60;100.00;99857.81;5276004;28;20357;-78
2022/01/03 03:06:28;;;;;;;4.28;1.02;;;;;;;9.64;100.00;99863.75;5260309;28;20033;-78
2022/01/03 03:08:58;;;;;;;5.82;1.08;;;;;;;9.62;100.00;99866.41;5239154;28;20020;-78
2022/01/03 03:11:28;;;;;;;6.22;1.00;;;;;;;9.61;100.00;99864.72;5277416;28;20073;-78
2022/01/03 03:13:59;;;;;;;8.50;1.02;;;;;;;9.70;100.00;99871.28;5261751;28;20034;-78
2022/01/03 03:16:29;;;;;;;8.68;1.20;;;;;;;9.71;100.00;99873.00;5284905;28;20103;-78
2022/01/03 03:18:59;;;;;;;6.68;0.93;;;;;;;9.70;100.00;99873.91;5254477;28;20028;-78
2022/01/03 03:21:31;;;;;;;6.63;1.33;;;;;;;9.81;100.00;99884.75;5275197;28;20080;-78
2022/01/03 03:24:01;;;;;;;9.32;1.63;;;;;;;9.80;100.00;99881.25;5277015;28;20027;-79
2022/01/03 03:26:31;;;;;;;8.48;1.30;;;;;;;9.82;100.00;99883.81;5279953;28;20031;-78
2022/01/03 03:29:02;;;;;;;9.50;1.50;;;;;;;9.84;100.00;99889.81;5256280;28;20517;-78
2022/01/03 03:31:32;;;;;;;11.13;1.48;;;;;;;9.81;100.00;99882.97;5257850;28;20028;-78
2022/01/03 03:34:02;;;;;;;11.32;1.45;;;;;;;9.87;100.00;99885.31;5275773;28;20027;-78
2022/01/03 03:36:33;;;;;;;9.85;1.27;;;;;;;9.91;100.00;99888.63;5264206;28;20016;-78
2022/01/03 03:39:03;;;;;;;7.78;1.27;;;;;;;9.88;100.00;99896.59;5273065;28;20051;-78
2022/01/03 03:41:33;;;;;;;10.20;1.27;;;;;;;9.89;100.00;99895.69;5281132;28;20051;-78
2022/01/03 03:44:04;;;;;;;5.80;1.10;;;;;;;9.91;100.00;99905.16;5275408;28;20236;-78
2022/01/03 03:46:34;;;;;;;7.22;1.02;;;;;;;9.85;100.00;99896.72;5276390;28;20024;-78
2022/01/03 03:49:06;;;;;;;7.38;0.93;;;;;;;9.83;100.00;99902.00;5254928;28;20146;-78
2022/01/03 03:51:38;;;;;;;6.78;1.17;;;;;;;9.89;100.00;99906.13;5258899;28;20429;-77
2022/01/03 03:54:08;;;;;;;9.65;1.10;;;;;;;9.84;100.00;99913.31;5277497;28;20144;-79
2022/01/03 03:56:38;;;;;;;9.48;1.50;;;;;;;9.78;100.00;99913.53;5280398;28;20489;-78
2022/01/03 03:59:09;;;;;;;9.48;1.40;;;;;;;9.86;100.00;99914.91;5274285;28;20030;-77
2022/01/03 04:01:40;;;;;;;8.15;1.30;;;;;;;9.78;100.00;99916.16;5275663;28;20028;-79
2022/01/03 04:04:10;;;;;;;7.95;1.40;;;;;;;9.86;100.00;99920.13;5256620;28;20031;-78
2022/01/03 04:06:40;;;;;;;8.23;1.38;;;;;;;9.92;100.00;99917.28;5281766;28;20028;-78
2022/01/03 04:09:11;;;;;;;11.63;1.60;;;;;;;9.94;100.00;99911.97;5276097;28;20045;-78
2022/01/03 04:11:41;;;;;;;9.50;1.25;;;;;;;9.92;100.00;99926.84;5279217;28;20423;-77
2022/01/03 04:14:12;;;;;;;7.78;1.38;;;;;;;9.95;100.00;99916.28;5258736;28;20020;-78
2022/01/03 04:16:42;;;;;;;6.18;1.30;;;;;;;9.81;100.00;99926.50;5285868;28;20024;-78
2022/01/03 04:19:12;;;;;;;9.88;1.48;;;;;;;9.76;100.00;99920.59;5265968;28;20023;-78
2022/01/03 04:21:43;;;;;;;7.55;1.10;;;;;;;9.71;100.00;99922.56;5264879;28;20596;-78
2022/01/03 04:24:13;;;;;;;9.70;1.40;;;;;;;9.66;100.00;99916.69;5260881;28;20661;-78
2022/01/03 04:26:45;;;;;;;10.23;1.50;;;;;;;9.70;100.00;99926.94;5283061;28;20028;-78
2022/01/03 04:29:15;;;;;;;12.70;1.77;;;;;;;9.74;100.00;99931.13;5279294;28;20020;-77
2022/01/03 04:31:45;;;;;;;8.73;1.42;;;;;;;9.73;100.00;99929.41;5265538;28;20030;-78
2022/01/03 04:34:16;;;;;;;7.20;1.30;;;;;;;9.71;100.00;99928.66;5278851;28;20481;-78
2022/01/03 04:36:47;;;;;;;7.53;1.40;;;;;;;9.64;100.00;99929.78;5260204;28;20020;-78
2022/01/03 04:39:17;;;;;;;7.00;1.38;;;;;;;9.75;100.00;99924.13;5259009;28;20020;-78
2022/01/03 04:41:47;;;;;;;9.63;2.05;;;;;;;9.74;100.00;99936.34;5265855;28;20051;-78
2022/01/03 04:44:18;;;;;;;9.27;1.10;;;;;;;9.80;100.00;99924.78;5261745;28;20443;-78
2022/01/03 04:46:48;;;;;;;8.00;1.33;;;;;;;9.87;100.00;99934.91;5265368;28;20023;-77
2022/01/03 04:49:18;;;;;;;8.30;1.35;;;;;;;9.84;100.00;99923.75;5262426;28;20073;-78
2022/01/03 04:51:49;;;;;;;10.60;1.80;;;;;;;9.90;100.00;99934.78;5264146;28;20027;-78
2022/01/03 04:54:19;;;;;;;8.93;1.65;;;;;;;9.92;100.00;99934.69;5278988;28;20032;-78
2022/01/03 04:56:51;;;;;;;9.68;1.52;;;;;;;9.90;100.00;99928.69;5282297;28;20020;-78
2022/01/03 04:59:21;;;;;;;7.90;1.30;;;;;;;9.83;100.00;99929.88;5279653;28;20032;-78
2022/01/03 05:01:51;;;;;;;6.20;1.17;;;;;;;9.91;100.00;99930.38;5264182;28;20084;-78
2022/01/03 05:04:21;;;;;;;8.20;1.23;;;;;;;9.98;100.00;99929.22;5261033;28;20031;-78
2022/01/03 05:06:52;;;;;;;9.05;1.27;;;;;;;9.97;100.00;99915.31;5265943;28;20030;-78
2022/01/03 05:09:22;;;;;;;7.07;1.40;;;;;;;9.93;100.00;99925.94;5269353;28;20051;-78
2022/01/03 05:11:52;;;;;;;10.25;1.35;;;;;;;9.94;100.00;99928.50;5265156;28;20028;-79
2022/01/03 05:14:23;;;;;;;6.78;1.42;;;;;;;9.92;100.00;99921.63;5280379;28;20044;-78
2022/01/03 05:16:53;;;;;;;8.75;1.48;;;;;;;9.90;100.00;99928.69;5263477;28;20138;-78
2022/01/03 05:19:25;;;;;;;11.38;1.48;;;;;;;9.90;100.00;99916.50;5263680;28;20024;-78
2022/01/03 05:21:55;;;;;;;13.32;1.40;;;;;;;9.89;100.00;99935.69;5268096;28;20035;-78
2022/01/03 05:24:25;;;;;;;10.25;1.50;;;;;;;9.90;100.00;99928.69;5260532;28;20034;-78
2022/01/03 05:26:56;;;;;;;12.20;1.80;;;;;;;9.87;100.00;99931.44;5280559;28;20055;-77
2022/01/03 05:29:28;;;;;;;10.40;1.67;;;;;;;9.93;100.00;99933.78;5262803;28;20549;-78
2022/01/03 05:31:58;;;;;;;6.63;1.40;;;;;;;9.91;100.00;99946.03;5280790;28;20384;-78
2022/01/03 05:34:28;;;;;;;11.23;1.50;;;;;;;9.76;100.00;99926.69;5277993;28;20028;-78
2022/01/03 05:36:59;;;;;;;6.25;1.40;;;;;;;9.68;100.00;99928.75;5282201;28;20473;-78
2022/01/03 05:39:29;;;;;;;10.82;1.60;;;;;;;9.57;100.00;99927.50;5271307;28;20020;-78
2022/01/03 05:41:59;;;;;;;7.80;1.17;;;;;;;9.41;100.00;99927.31;5277984;28;20082;-78
2022/01/03 05:44:30;;;;;;;9.27;1.40;;;;;;;9.33;100.00;99941.56;5277443;28;20032;-79
2022/01/03 05:47:00;;;;;;;12.45;1.38;;;;;;;9.34;100.00;99943.25;5260996;28;20055;-78
2022/01/03 05:49:30;;;;;;;11.05;2.13;;;;;;;9.25;100.00;99948.84;5260686;28;20032;-78
2022/01/03 05:52:01;;;;;;;9.80;1.75;;;;;;;9.26;100.00;99946.19;5278903;28;20032;-78
2022/01/03 05:54:31;;;;;;;9.65;1.75;;;;;;;9.23;100.00;99951.53;5279338;28;20115;-78
2022/01/03 05:57:01;;;;;;;10.55;1.63;;;;;;;9.29;100.00;99945.22;5280304;28;20386;-77
2022/01/03 05:59:32;;;;;;;13.25;1.67;;;;;;;9.37;100.00;99956.16;5261226;28;20020;-78
2022/01/03 06:02:04;;;;;;;10.05;1.75;;;;;;;9.31;100.00;99949.44;5262551;28;20085;-78
2022/01/03 06:07:23;;;;;;;8.73;1.40;;;;;;;9.36;100.00;99955.34;5282989;28;20512;-78
2022/01/03 06:09:53;;;;;;;11.98;1.80;;;;;;;9.37;100.00;99945.75;5260097;28;20027;-78
2022/01/03 06:12:24;;;;;;;11.10;2.05;;;;;;;9.36;100.00;99951.88;5282078;28;20028;-76
2022/01/03 06:14:55;;;;;;;11.90;1.85;;;;;;;9.33;100.00;99952.00;5282992;28;20027;-78
2022/01/03 06:17:25;;;;;;;11.68;2.13;;;;;;;9.48;100.00;99946.16;5283381;28;20030;-78
2022/01/03 06:19:56;;;;;;;11.23;2.38;;;;;;;9.44;100.00;99939.34;5285081;28;20031;-77
2022/01/03 06:22:26;;;;;;;10.40;2.22;;;;;;;9.54;100.00;99945.91;5279194;28;20466;-77
2022/01/03 06:24:57;;;;;;;14.57;2.40;;;;;;;9.57;100.00;99932.72;5280924;28;20030;-77
2022/01/03 06:27:27;;;;;;;13.48;2.30;;;;;;;9.61;100.00;99931.69;5263884;28;20103;-78
2022/01/03 06:29:57;;;;;;;11.50;2.20;;;;;;;9.54;100.00;99930.25;5265874;28;20056;-78
2022/01/03 06:32:28;;;;;;;12.25;2.17;;;;;;;9.53;100.00;99933.78;5281033;28;20485;-78
2022/01/03 06:34:58;;;;;;;11.82;1.88;;;;;;;9.49;100.00;99937.44;5280459;28;20027;-78
2022/01/03 06:37:28;;;;;;;9.07;2.17;;;;;;;9.43;100.00;99942.88;5265735;28;20027;-78
2022/01/03 06:39:58;;;;;;;12.80;2.53;;;;;;;9.46;100.00;99945.38;5275225;28;20145;-78
2022/01/03 06:42:29;;;;;;;15.18;2.65;;;;;;;9.55;100.00;99958.88;5282801;28;20419;-78
2022/01/03 06:44:59;;;;;;;11.63;2.50;;;;;;;9.64;100.00;99947.22;5284131;28;20488;-78
2022/01/03 06:47:30;;;;;;;12.70;2.10;;;;;;;9.59;100.00;99949.16;5284580;28;20032;-78
2022/01/03 06:50:00;;;;;;;11.10;1.98;;;;;;;9.61;100.00;99947.31;5266021;28;20032;-78
2022/01/03 06:52:30;;;;;;;13.27;2.45;;;;;;;9.55;100.00;99952.81;5285609;28;20081;-78
2022/01/03 06:55:01;;;;;;;10.43;1.98;;;;;;;9.45;100.00;99951.50;5285122;28;20023;-78
2022/01/03 06:57:32;;;;;;;14.15;1.98;;;;;;;9.42;100.00;99957.69;5266632;28;20035;-78
2022/01/03 07:00:04;;;;;;;11.60;2.05;;;;;;;9.44;100.00;99955.00;5284137;28;20092;-78
2022/01/03 07:02:34;;;;;;;11.45;1.88;;;;;;;9.46;100.00;99958.41;5286458;28;20131;-78
2022/01/03 07:05:04;;;;;;;12.70;2.20;;;;;;;9.45;100.00;99956.72;5284382;28;20068;-78
2022/01/03 07:07:35;;;;;;;11.60;2.05;;;;;;;9.47;100.00;99960.94;5269202;28;20119;-78
2022/01/03 07:10:06;;;;;;;11.95;2.35;;;;;;;9.37;100.00;99954.44;5283096;28;20055;-77
2022/01/03 07:12:36;;;;;;;12.85;2.65;;;;;;;9.36;100.00;99963.16;5288021;28;20374;-78
2022/01/03 07:20:47;;;;;;;10.75;2.58;;;;;;;9.36;100.00;99975.34;5282249;28;20071;-78
2022/01/03 07:23:19;;;;;;;13.45;2.30;;;;;;;9.42;100.00;99977.69;5285760;28;20049;-78
2022/01/03 07:25:49;;;;;;;11.75;2.47;;;;;;;9.48;100.00;99978.28;5263567;28;20024;-78
2022/01/03 07:28:20;;;;;;;14.65;2.50;;;;;;;9.51;100.00;99983.38;5279015;22;20047;-80
2022/01/03 07:30:50;;;;;;;14.07;2.20;;;;;;;9.57;100.00;99990.97;5257773;28;20341;-81
2022/01/03 07:33:20;;;;;;;8.60;2.25;;;;;;;9.56;100.00;99980.59;5254209;28;20036;-79
2022/01/03 07:35:50;;;;;;;13.10;2.78;;;;;;;9.49;100.00;99989.59;5250799;28;20052;-80
2022/01/03 07:38:21;;;;;;;12.70;2.72;;;;;;;9.46;100.00;99993.16;5242540;28;20046;-80
2022/01/03 07:40:51;;;;;;;14.02;2.58;;;;;;;9.47;100.00;99991.41;5245627;28;20024;-81
2022/01/03 07:43:21;;;;;;;8.48;2.40;;;;;;;9.55;100.00;99990.19;5252017;28;20640;-80
2022/01/03 07:45:51;;;;;;;10.20;2.15;;;;;;;9.58;100.00;100000.50;5252742;28;20030;-78
2022/01/03 07:48:22;;;;;;;10.00;2.60;;;;;;;9.57;100.00;100003.16;5250258;28;20549;-79
2022/01/03 07:50:52;;;;;;;11.02;2.67;;;;;;;9.70;100.00;99999.13;5253037;28;20071;-79
2022/01/03 07:53:22;;;;;;;13.63;2.60;;;;;;;9.74;100.00;100008.53;5251103;28;20520;-78
2022/01/03 07:55:53;;;;;;;13.48;2.70;;;;;;;9.85;100.00;99996.72;5255267;28;20064;-78
2022/01/03 07:58:23;;;;;;;12.30;2.55;;;;;;;9.96;100.00;99991.09;5253305;28;20090;-79
2022/01/03 08:00:53;;;;;;;15.77;2.53;;;;;;;10.00;100.00;99977.81;5251752;28;20028;-79
2022/01/03 08:03:24;;;;;;;12.20;2.55;;;;;;;10.03;100.00;99987.31;5254728;28;20030;-79
2022/01/03 08:05:54;;;;;;;13.07;2.60;;;;;;;10.00;100.00;99993.47;5253040;28;20072;-79
2022/01/03 08:08:24;;;;;;;12.40;2.47;;;;;;;10.28;100.00;99998.38;5241320;28;20111;-78
2022/01/03 08:10:55;;;;;;;11.68;2.53;;;;;;;10.42;99.13;99988.19;5247919;28;20029;-78
2022/01/03 08:13:26;;;;;;;12.95;2.33;;;;;;;10.85;96.64;99993.19;5245294;28;20051;-78
2022/01/03 08:15:57;;;;;;;9.00;2.40;;;;;;;11.12;95.49;99995.38;5250684;28;20028;-79
2022/01/03 08:18:28;;;;;;;11.40;2.50;;;;;;;10.81;96.12;99994.22;5251900;28;20178;-79
2022/01/03 08:20:58;;;;;;;14.10;2.40;;;;;;;10.67;97.25;99991.41;5252393;28;20157;-79
2022/01/03 08:23:30;;;;;;;10.80;2.40;;;;;;;10.47;98.72;99994.06;5250120;28;20024;-80
2022/01/03 08:26:01;;;;;;;9.10;2.30;;;;;;;10.73;98.08;99996.34;5246057;28;20032;-78
2022/01/03 08:28:31;;;;;;;14.15;2.22;;;;;;;10.63;97.72;99993.31;5247823;28;20024;-79
2022/01/03 08:31:01;;;;;;;10.05;2.33;;;;;;;10.51;98.27;99993.84;5252578;28;20028;-78
2022/01/03 08:33:33;;;;;;;8.18;1.95;;;;;;;10.44;98.67;99999.41;5251984;28;20496;-79
2022/01/03 08:36:04;;;;;;;10.02;2.53;;;;;;;10.29;99.30;99997.47;5251290;28;20029;-79
2022/01/03 08:38:34;;;;;;;9.55;2.50;;;;;;;10.31;99.91;99998.28;5241642;28;20378;-78
2022/01/03 08:41:04;;;;;;;10.77;2.50;;;;;;;10.17;100.00;100003.25;5249654;28;20453;-78
2022/01/03 08:43:35;;;;;;;10.65;2.47;;;;;;;10.02;100.00;100006.50;5253162;28;20074;-79
2022/01/03 08:46:05;;;;;;;13.43;2.85;;;;;;;10.04;100.00;99996.84;5252603;28;20464;-79
2022/01/03 08:48:35;;;;;;;10.65;2.47;;;;;;;10.06;100.00;100003.72;5250781;28;20028;-79
2022/01/03 08:51:06;;;;;;;12.93;2.53;;;;;;;10.04;100.00;100004.69;5252939;28;20024;-79
2022/01/03 08:53:37;;;;;;;13.82;3.08;;;;;;;9.98;100.00;100000.53;5250063;28;20031;-79
2022/01/03 08:56:07;;;;;;;15.43;2.58;;;;;;;10.07;100.00;100001.94;5253185;28;20448;-79
2022/01/03 08:58:38;;;;;;;11.50;2.10;;;;;;;10.04;100.00;99992.50;5250158;28;20033;-79
2022/01/03 09:01:08;;;;;;;15.25;2.22;;;;;;;10.09;99.77;100002.72;5255614;28;20031;-79
2022/01/03 09:03:38;;;;;;;19.00;2.58;;;;;;;10.20;99.63;100005.72;5252644;28;20056;-79
2022/01/03 09:06:08;;;;;;;11.93;2.42;;;;;;;10.20;99.15;100006.56;5249376;28;20142;-78
2022/01/03 09:08:39;;;;;;;8.77;2.17;;;;;;;10.32;98.68;100011.25;5247985;28;20029;-79
2022/01/03 09:11:09;;;;;;;9.45;2.13;;;;;;;10.32;98.26;100003.41;5253072;28;20466;-79
2022/01/03 09:13:40;;;;;;;11.38;2.25;;;;;;;10.39;97.54;100011.84;5257120;28;20299;-79
2022/01/03 09:16:10;;;;;;;12.15;2.20;;;;;;;10.49;97.29;100013.16;5254701;28;20214;-79
2022/01/03 09:18:40;;;;;;;11.48;2.03;;;;;;;10.64;96.42;100012.44;5257148;28;20036;-79
2022/01/03 09:21:11;;;;;;;10.68;2.08;;;;;;;10.60;95.46;100010.88;5254260;28;20374;-79
2022/01/03 09:23:46;;;;;;;14.32;2.53;;;;;;;10.63;95.17;100009.00;5256826;28;20020;-79
2022/01/03 09:29:06;;;;;;;10.02;2.08;;;;;;;10.73;94.43;99999.84;5235224;28;20047;-79
2022/01/03 09:31:38;;;;;;;14.27;2.42;;;;;;;10.61;94.73;99996.91;5235899;28;20374;-80
2022/01/03 09:34:09;;;;;;;11.25;2.38;;;;;;;10.74;94.76;99998.06;5236115;28;20382;-78
2022/01/03 09:36:39;;;;;;;13.10;2.42;;;;;;;10.68;94.26;99993.13;5216622;28;20012;-80
2022/01/03 09:39:09;;;;;;;12.85;2.35;;;;;;;10.82;93.24;99994.19;5225803;28;20115;-79
2022/01/03 09:41:52;;;;;;;10.57;2.55;;;;;;;10.91;93.32;99992.91;5231926;28;20036;-80
2022/01/03 09:44:28;;;;;;;13.52;2.97;;;;;;;11.02;92.98;99990.66;5229975;28;20035;-78
2022/01/03 09:47:01;;;;;;;13.07;2.33;;;;;;;11.00;92.11;99984.66;5234081;28;20112;-79
2022/01/03 09:49:36;;;;;;;11.50;2.10;;;;;;;11.13;92.38;99981.38;5234205;28;20470;-78
2022/01/03 09:52:07;;;;;;;12.25;2.17;;;;;;;11.25;91.11;99979.03;5231832;28;20435;-79
2022/01/03 09:54:38;;;;;;;12.63;2.72;;;;;;;11.43;90.79;99985.16;5235020;28;20036;-79
2022/01/03 09:57:10;;;;;;;12.73;2.13;;;;;;;11.31;90.56;99986.56;5232025;28;20438;-78
2022/01/03 09:59:42;;;;;;;13.15;2.45;;;;;;;11.42;90.91;99984.28;5235470;28;20111;-79
2022/01/03 10:02:14;;;;;;;11.57;2.28;;;;;;;11.33;90.71;99979.53;5232574;28;20111;-79
2022/01/03 10:04:45;;;;;;;12.50;2.50;;;;;;;11.52;90.44;99976.84;5227360;28;20033;-78
2022/01/03 10:07:17;;;;;;;10.88;2.80;;;;;;;11.52;90.31;99969.00;5231149;28;20025;-78
2022/01/03 10:09:47;;;;;;;12.43;2.13;;;;;;;11.51;89.53;99983.00;5227805;28;20028;-78
2022/01/03 10:12:19;;;;;;;9.82;2.17;;;;;;;11.53;89.88;99975.91;5230512;28;20032;-79
2022/01/03 10:14:49;;;;;;;15.18;2.47;;;;;;;11.39;89.36;99967.88;5234363;28;20029;-78
2022/01/03 10:17:20;;;;;;;14.88;1.77;;;;;;;11.23;89.29;99980.88;5213556;28;20123;-78
2022/01/03 10:19:51;;;;;;;8.77;2.33;;;;;;;11.30;89.53;99974.41;5234158;28;20035;-78
2022/01/03 10:22:28;;;;;;;7.65;2.03;;;;;;;11.26;89.79;99972.88;5232432;28;20041;-78
2022/01/03 10:25:11;;;;;;;12.80;2.22;;;;;;;11.28;90.42;99973.63;5233596;28;20047;-78
2022/01/03 10:27:55;;;;;;;11.95;2.10;;;;;;;11.34;89.23;99962.03;5233519;28;20115;-79
2022/01/03 10:30:34;;;;;;;11.27;2.58;;;;;;;11.40;89.52;99962.59;5230014;28;20035;-80
2022/01/03 10:33:07;;;;;;;10.25;2.03;;;;;;;11.33;89.46;99963.81;5234576;28;20028;-78
2022/01/03 10:35:42;;;;;;;11.57;2.05;;;;;;;11.35;89.88;99959.34;5232934;28;20016;-79
2022/01/03 10:38:34;;;;;;;13.23;2.83;;;;;;;11.37;89.97;99965.38;5205198;28;20035;-79
2022/01/03 10:41:22;;;;;;;14.88;2.10;;;;;;;11.33;89.24;99958.59;5230791;28;20037;-79
2022/01/03 10:43:56;;;;;;;10.40;1.85;;;;;;;11.23;89.88;99962.56;5229224;28;20395;-80
2022/01/03 10:46:30;;;;;;;11.30;2.08;;;;;;;11.26;90.43;99951.94;5236521;28;20209;-81
2022/01/03 10:49:13;;;;;;;9.85;1.75;;;;;;;11.55;89.65;99964.47;5235625;28;20029;-80
2022/01/03 10:51:44;;;;;;;7.68;1.77;;;;;;;11.72;88.97;99959.28;5230080;28;20041;-82
2022/01/03 10:54:18;;;;;;;12.52;2.13;;;;;;;11.65;89.06;99949.19;5226345;28;20395;-80
2022/01/03 10:56:50;;;;;;;12.50;2.35;;;;;;;11.44;88.34;99951.03;5227216;28;20058;-81
2022/01/03 10:59:28;;;;;;;8.88;2.10;;;;;;;11.30;89.88;99937.78;5225455;28;20513;-80
2022/01/03 11:01:59;;;;;;;8.70;1.67;;;;;;;11.13;90.30;99950.81;5230733;28;20379;-80
2022/01/03 11:04:50;;;;;;;13.93;2.08;;;;;;;11.07;90.78;99945.06;5233316;28;20025;-79
2022/01/03 11:13:20;;;;;;;9.63;2.20;;;;;;;11.19;90.23;99932.25;5210038;28;20269;-80
2022/01/03 11:16:01;;;;;;;7.47;1.70;;;;;;;11.19;90.09;99928.78;5229029;28;20562;-80
2022/01/03 11:18:35;;;;;;;9.80;1.70;;;;;;;11.19;90.33;99934.00;5232962;28;20020;-80
2022/01/03 11:21:13;;;;;;;13.40;2.63;;;;;;;11.31;90.58;99929.00;5234700;28;20029;-81
2022/01/03 11:23:45;;;;;;;5.47;1.40;;;;;;;11.32;90.02;99920.28;5231710;28;20028;-80
2022/01/03 11:26:20;;;;;;;10.23;1.73;;;;;;;11.26;90.48;99923.16;5227811;28;20032;-81
2022/01/03 11:28:51;;;;;;;9.18;1.90;;;;;;;11.32;89.50;99920.28;5257395;28;20481;-82
2022/01/03 11:31:21;;;;;;;12.73;1.83;;;;;;;11.42;88.36;99928.53;5257444;28;20031;-80
2022/01/03 11:33:52;;;;;;;7.88;1.55;;;;;;;11.46;88.86;99920.41;5253595;28;20049;-80
2022/01/03 11:36:24;;;;;;;11.05;2.80;;;;;;;11.57;89.65;99915.53;5251347;28;20095;-78
2022/01/03 11:38:56;;;;;;;11.27;1.67;;;;;;;11.67;88.33;99916.78;5248948;28;20142;-78
2022/01/03 11:41:27;;;;;;;7.78;2.15;;;;;;;11.70;88.94;99915.75;5252367;28;20020;-78
2022/01/03 11:43:57;;;;;;;7.65;1.90;;;;;;;11.50;87.41;99911.53;5252858;28;20032;-80
2022/01/03 11:46:28;;;;;;;8.07;2.05;;;;;;;11.45;89.24;99908.25;5244523;28;20039;-78
2022/01/03 11:48:58;;;;;;;9.73;1.60;;;;;;;11.28;88.78;99905.63;5246989;28;20131;-78
2022/01/03 11:51:34;;;;;;;13.35;2.20;;;;;;;11.23;88.62;99910.25;5230166;28;20282;-79
2022/01/03 11:54:07;;;;;;;8.80;2.10;;;;;;;11.27;89.22;99905.72;5251986;28;20036;-80
2022/01/03 11:56:43;;;;;;;14.50;2.40;;;;;;;11.16;89.05;99900.16;5250608;28;20063;-81
2022/01/03 12:04:56;;;;;;;10.13;1.77;;;;;;;11.19;89.86;99916.56;5250856;28;20149;-81
2022/01/03 12:07:27;;;;;;;6.93;1.90;;;;;;;11.20;90.06;99914.78;5241942;28;20055;-81
2022/01/03 12:10:10;;;;;;;8.60;2.00;;;;;;;11.21;88.73;99906.88;5245301;28;20040;-81
2022/01/03 12:12:41;;;;;;;7.47;1.60;;;;;;;11.25;89.74;99892.72;5254423;28;20468;-81
2022/01/03 12:15:39;;;;;;;8.10;1.55;;;;;;;11.34;89.10;99900.13;5250029;28;20075;-80